sensor_id;sensor_type;location;lat;lon;timestamp;temperature;humidity
12025;DHT22;6073;53.230;10.444;2023-07-02T00:02:22;14.60;99.90
12025;DHT22;6073;53.230;10.444;2023-07-02T00:04:47;14.60;99.90
12025;DHT22;6073;53.230;10.444;2023-07-02T00:07:13;14.60;99.90
12025;DHT22;6073;53.230;10.444;2023-07-02T00:09:40;14.60;99.90
12025;DHT22;6073;53.230;10.444;2023-07-02T00:12:06;14.60;99.90
12025;DHT22;6073;53.230;10.444;2023-07-02T00:14:31;14.60;99.90
12025;DHT22;6073;53.230;10.444;2023-07-02T00:16:57;14.60;99.90
12025;DHT22;6073;53.230;10.444;2023-07-02T00:19:23;14.60;99.90
12025;DHT22;6073;53.230;10.444;2023-07-02T00:21:49;14.60;99.90
12025;DHT22;6073;53.230;10.444;2023-07-02T00:24:14;14.60;99.90
12025;DHT22;6073;53.230;10.444;2023-07-02T00:26:41;14.70;99.90
12025;DHT22;6073;53.230;10.444;2023-07-02T00:29:07;14.60;99.90
12025;DHT22;6073;53.230;10.444;2023-07-02T00:31:34;14.60;99.90
12025;DHT22;6073;53.230;10.444;2023-07-02T00:34:01;14.60;99.90
12025;DHT22;6073;53.230;10.444;2023-07-02T00:36:27;14.60;99.90
12025;DHT22;6073;53.230;10.444;2023-07-02T00:38:52;14.60;99.90
12025;DHT22;6073;53.230;10.444;2023-07-02T00:41:18;14.50;99.90
12025;DHT22;6073;53.230;10.444;2023-07-02T00:43:44;14.50;99.90
12025;DHT22;6073;53.230;10.444;2023-07-02T00:46:14;14.50;99.90
12025;DHT22;6073;53.230;10.444;2023-07-02T00:48:47;14.50;99.90
12025;DHT22;6073;53.230;10.444;2023-07-02T00:51:18;14.50;99.90
12025;DHT22;6073;53.230;10.444;2023-07-02T00:53:44;14.40;99.90
12025;DHT22;6073;53.230;10.444;2023-07-02T00:56:11;14.40;99.90
12025;DHT22;6073;53.230;10.444;2023-07-02T00:58:39;14.40;99.90
12025;DHT22;6073;53.230;10.444;2023-07-02T01:01:05;14.30;99.90
12025;DHT22;6073;53.230;10.444;2023-07-02T01:03:31;14.30;99.90
12025;DHT22;6073;53.230;10.444;2023-07-02T01:05:58;14.30;99.90
12025;DHT22;6073;53.230;10.444;2023-07-02T01:08:24;14.30;99.90
12025;DHT22;6073;53.230;10.444;2023-07-02T01:10:49;14.30;99.90
12025;DHT22;6073;53.230;10.444;2023-07-02T01:13:18;14.30;99.90
12025;DHT22;6073;53.230;10.444;2023-07-02T01:15:45;14.30;99.90
12025;DHT22;6073;53.230;10.444;2023-07-02T01:18:12;14.30;99.90
12025;DHT22;6073;53.230;10.444;2023-07-02T01:20:39;14.40;99.90
12025;DHT22;6073;53.230;10.444;2023-07-02T01:23:05;14.40;99.90
12025;DHT22;6073;53.230;10.444;2023-07-02T01:25:30;14.40;99.90
12025;DHT22;6073;53.230;10.444;2023-07-02T01:27:56;14.40;99.90
12025;DHT22;6073;53.230;10.444;2023-07-02T01:30:24;14.40;99.90
12025;DHT22;6073;53.230;10.444;2023-07-02T01:32:50;14.40;99.90
12025;DHT22;6073;53.230;10.444;2023-07-02T01:35:16;14.40;99.90
12025;DHT22;6073;53.230;10.444;2023-07-02T01:37:41;14.30;99.90
12025;DHT22;6073;53.230;10.444;2023-07-02T01:40:07;14.30;99.90
12025;DHT22;6073;53.230;10.444;2023-07-02T01:42:37;14.20;99.90
12025;DHT22;6073;53.230;10.444;2023-07-02T01:45:03;14.20;99.90
12025;DHT22;6073;53.230;10.444;2023-07-02T01:47:28;14.10;99.90
12025;DHT22;6073;53.230;10.444;2023-07-02T01:49:54;14.10;99.90
12025;DHT22;6073;53.230;10.444;2023-07-02T01:52:19;14.00;99.90
12025;DHT22;6073;53.230;10.444;2023-07-02T01:54:45;14.00;99.90
12025;DHT22;6073;53.230;10.444;2023-07-02T01:57:11;14.00;99.90
12025;DHT22;6073;53.230;10.444;2023-07-02T01:59:37;14.00;99.90
12025;DHT22;6073;53.230;10.444;2023-07-02T02:02:03;14.00;99.90
12025;DHT22;6073;53.230;10.444;2023-07-02T02:04:28;13.90;99.90
12025;DHT22;6073;53.230;10.444;2023-07-02T02:06:55;13.90;99.90
12025;DHT22;6073;53.230;10.444;2023-07-02T02:09:21;13.90;99.90
12025;DHT22;6073;53.230;10.444;2023-07-02T02:11:49;14.00;99.90
12025;DHT22;6073;53.230;10.444;2023-07-02T02:14:15;14.00;99.90
12025;DHT22;6073;53.230;10.444;2023-07-02T02:16:41;14.00;99.90
12025;DHT22;6073;53.230;10.444;2023-07-02T02:19:11;14.00;99.90
12025;DHT22;6073;53.230;10.444;2023-07-02T02:21:37;14.00;99.90
12025;DHT22;6073;53.230;10.444;2023-07-02T02:24:03;14.00;99.90
12025;DHT22;6073;53.230;10.444;2023-07-02T02:26:29;14.10;99.90
12025;DHT22;6073;53.230;10.444;2023-07-02T02:28:55;14.10;99.90
12025;DHT22;6073;53.230;10.444;2023-07-02T02:31:20;14.10;99.90
12025;DHT22;6073;53.230;10.444;2023-07-02T02:33:46;14.10;99.90
12025;DHT22;6073;53.230;10.444;2023-07-02T02:36:12;14.20;99.90
12025;DHT22;6073;53.230;10.444;2023-07-02T02:38:37;14.20;99.90
12025;DHT22;6073;53.230;10.444;2023-07-02T02:41:03;14.20;99.90
12025;DHT22;6073;53.230;10.444;2023-07-02T02:43:28;14.20;99.90
12025;DHT22;6073;53.230;10.444;2023-07-02T02:45:54;14.20;99.90
12025;DHT22;6073;53.230;10.444;2023-07-02T02:48:19;14.20;99.90
12025;DHT22;6073;53.230;10.444;2023-07-02T02:50:47;14.20;99.90
12025;DHT22;6073;53.230;10.444;2023-07-02T02:53:12;14.30;99.90
12025;DHT22;6073;53.230;10.444;2023-07-02T02:55:38;14.20;99.90
12025;DHT22;6073;53.230;10.444;2023-07-02T02:58:04;14.30;99.90
12025;DHT22;6073;53.230;10.444;2023-07-02T03:00:29;14.30;99.90
12025;DHT22;6073;53.230;10.444;2023-07-02T03:02:55;14.30;99.90
12025;DHT22;6073;53.230;10.444;2023-07-02T03:05:24;14.40;99.90
12025;DHT22;6073;53.230;10.444;2023-07-02T03:07:50;14.40;99.90
12025;DHT22;6073;53.230;10.444;2023-07-02T03:10:16;14.40;99.90
12025;DHT22;6073;53.230;10.444;2023-07-02T03:12:42;14.40;99.90
12025;DHT22;6073;53.230;10.444;2023-07-02T03:15:07;14.40;99.90
12025;DHT22;6073;53.230;10.444;2023-07-02T03:17:34;14.40;99.90
12025;DHT22;6073;53.230;10.444;2023-07-02T03:20:00;14.40;99.90
12025;DHT22;6073;53.230;10.444;2023-07-02T03:22:25;14.50;99.90
12025;DHT22;6073;53.230;10.444;2023-07-02T03:24:51;14.50;99.90
12025;DHT22;6073;53.230;10.444;2023-07-02T03:27:17;14.40;99.90
12025;DHT22;6073;53.230;10.444;2023-07-02T03:29:42;14.40;99.90
12025;DHT22;6073;53.230;10.444;2023-07-02T03:32:08;14.50;99.90
12025;DHT22;6073;53.230;10.444;2023-07-02T03:34:33;14.50;99.90
12025;DHT22;6073;53.230;10.444;2023-07-02T03:36:59;14.60;99.90
12025;DHT22;6073;53.230;10.444;2023-07-02T03:39:25;14.60;99.90
12025;DHT22;6073;53.230;10.444;2023-07-02T03:41:50;14.50;99.90
12025;DHT22;6073;53.230;10.444;2023-07-02T03:44:16;14.50;99.90
12025;DHT22;6073;53.230;10.444;2023-07-02T03:46:41;14.50;99.90
12025;DHT22;6073;53.230;10.444;2023-07-02T03:49:07;14.40;99.90
12025;DHT22;6073;53.230;10.444;2023-07-02T03:51:32;14.40;99.90
12025;DHT22;6073;53.230;10.444;2023-07-02T03:53:58;14.40;99.90
12025;DHT22;6073;53.230;10.444;2023-07-02T03:56:24;14.50;99.90
12025;DHT22;6073;53.230;10.444;2023-07-02T03:58:50;14.50;99.90
12025;DHT22;6073;53.230;10.444;2023-07-02T04:01:15;14.50;99.90
12025;DHT22;6073;53.230;10.444;2023-07-02T04:03:48;14.60;99.90
12025;DHT22;6073;53.230;10.444;2023-07-02T04:06:14;14.60;99.90
12025;DHT22;6073;53.230;10.444;2023-07-02T04:08:39;14.70;99.90
12025;DHT22;6073;53.230;10.444;2023-07-02T04:11:05;14.70;99.90
12025;DHT22;6073;53.230;10.444;2023-07-02T04:13:31;14.80;99.90
12025;DHT22;6073;53.230;10.444;2023-07-02T04:15:56;14.80;99.90
12025;DHT22;6073;53.230;10.444;2023-07-02T04:18:22;14.80;99.90
12025;DHT22;6073;53.230;10.444;2023-07-02T04:20:48;14.80;99.90
12025;DHT22;6073;53.230;10.444;2023-07-02T04:23:13;14.80;99.90
12025;DHT22;6073;53.230;10.444;2023-07-02T04:25:39;14.80;99.90
12025;DHT22;6073;53.230;10.444;2023-07-02T04:28:04;14.90;99.90
12025;DHT22;6073;53.230;10.444;2023-07-02T04:30:30;14.90;99.90
12025;DHT22;6073;53.230;10.444;2023-07-02T04:32:55;15.00;99.90
12025;DHT22;6073;53.230;10.444;2023-07-02T04:35:21;15.10;99.90
12025;DHT22;6073;53.230;10.444;2023-07-02T04:37:46;15.10;99.90
12025;DHT22;6073;53.230;10.444;2023-07-02T04:40:12;15.20;99.90
12025;DHT22;6073;53.230;10.444;2023-07-02T04:42:38;15.20;99.90
12025;DHT22;6073;53.230;10.444;2023-07-02T04:45:05;15.20;99.90
12025;DHT22;6073;53.230;10.444;2023-07-02T04:47:31;15.30;99.90
12025;DHT22;6073;53.230;10.444;2023-07-02T04:49:57;15.50;99.90
12025;DHT22;6073;53.230;10.444;2023-07-02T04:52:23;15.70;99.90
12025;DHT22;6073;53.230;10.444;2023-07-02T04:54:48;15.80;99.90
12025;DHT22;6073;53.230;10.444;2023-07-02T04:57:14;15.80;99.90
12025;DHT22;6073;53.230;10.444;2023-07-02T04:59:41;16.00;99.90
12025;DHT22;6073;53.230;10.444;2023-07-02T05:02:07;16.10;99.90
12025;DHT22;6073;53.230;10.444;2023-07-02T05:04:33;16.20;99.90
12025;DHT22;6073;53.230;10.444;2023-07-02T05:06:59;16.30;99.90
12025;DHT22;6073;53.230;10.444;2023-07-02T05:09:25;16.30;99.90
12025;DHT22;6073;53.230;10.444;2023-07-02T05:11:50;16.20;99.90
12025;DHT22;6073;53.230;10.444;2023-07-02T05:14:16;16.00;99.90
12025;DHT22;6073;53.230;10.444;2023-07-02T05:16:42;16.10;99.90
12025;DHT22;6073;53.230;10.444;2023-07-02T05:19:07;16.20;99.90
12025;DHT22;6073;53.230;10.444;2023-07-02T05:21:33;16.40;99.90
12025;DHT22;6073;53.230;10.444;2023-07-02T05:23:58;16.20;99.90
12025;DHT22;6073;53.230;10.444;2023-07-02T05:26:24;16.10;99.90
12025;DHT22;6073;53.230;10.444;2023-07-02T05:28:49;16.40;99.90
12025;DHT22;6073;53.230;10.444;2023-07-02T05:31:15;17.00;99.90
12025;DHT22;6073;53.230;10.444;2023-07-02T05:33:41;17.60;99.90
12025;DHT22;6073;53.230;10.444;2023-07-02T05:36:06;17.80;99.90
12025;DHT22;6073;53.230;10.444;2023-07-02T05:38:32;17.90;99.90
12025;DHT22;6073;53.230;10.444;2023-07-02T05:40:57;18.20;99.90
12025;DHT22;6073;53.230;10.444;2023-07-02T05:43:23;18.40;99.90
12025;DHT22;6073;53.230;10.444;2023-07-02T05:45:50;18.30;99.90
12025;DHT22;6073;53.230;10.444;2023-07-02T05:48:17;18.60;99.90
12025;DHT22;6073;53.230;10.444;2023-07-02T05:50:42;18.80;99.90
12025;DHT22;6073;53.230;10.444;2023-07-02T05:53:08;19.00;99.90
12025;DHT22;6073;53.230;10.444;2023-07-02T05:55:35;19.00;99.90
12025;DHT22;6073;53.230;10.444;2023-07-02T05:58:00;19.10;99.90
12025;DHT22;6073;53.230;10.444;2023-07-02T06:00:28;18.80;99.90
12025;DHT22;6073;53.230;10.444;2023-07-02T06:02:54;18.90;99.90
12025;DHT22;6073;53.230;10.444;2023-07-02T06:05:19;18.90;99.90
12025;DHT22;6073;53.230;10.444;2023-07-02T06:07:45;19.30;99.90
12025;DHT22;6073;53.230;10.444;2023-07-02T06:10:10;19.70;99.90
12025;DHT22;6073;53.230;10.444;2023-07-02T06:12:36;19.70;99.90
12025;DHT22;6073;53.230;10.444;2023-07-02T06:15:02;20.00;99.90
12025;DHT22;6073;53.230;10.444;2023-07-02T06:17:28;20.30;99.90
12025;DHT22;6073;53.230;10.444;2023-07-02T06:19:56;20.00;99.90
12025;DHT22;6073;53.230;10.444;2023-07-02T06:22:22;20.30;99.90
12025;DHT22;6073;53.230;10.444;2023-07-02T06:24:47;20.40;99.90
12025;DHT22;6073;53.230;10.444;2023-07-02T06:27:13;19.90;99.90
12025;DHT22;6073;53.230;10.444;2023-07-02T06:29:38;19.70;99.90
12025;DHT22;6073;53.230;10.444;2023-07-02T06:32:04;19.90;99.90
12025;DHT22;6073;53.230;10.444;2023-07-02T06:34:30;20.00;99.90
12025;DHT22;6073;53.230;10.444;2023-07-02T06:36:55;20.20;99.90
12025;DHT22;6073;53.230;10.444;2023-07-02T06:39:21;20.10;99.90
12025;DHT22;6073;53.230;10.444;2023-07-02T06:41:46;20.00;99.90
12025;DHT22;6073;53.230;10.444;2023-07-02T06:44:12;20.20;99.90
12025;DHT22;6073;53.230;10.444;2023-07-02T06:46:37;20.20;99.90
12025;DHT22;6073;53.230;10.444;2023-07-02T06:49:03;20.40;99.90
12025;DHT22;6073;53.230;10.444;2023-07-02T06:51:29;20.40;99.90
12025;DHT22;6073;53.230;10.444;2023-07-02T06:53:54;20.70;99.90
12025;DHT22;6073;53.230;10.444;2023-07-02T06:56:20;20.90;99.90
12025;DHT22;6073;53.230;10.444;2023-07-02T06:58:45;21.00;99.90
12025;DHT22;6073;53.230;10.444;2023-07-02T07:01:11;20.80;99.90
12025;DHT22;6073;53.230;10.444;2023-07-02T07:03:37;20.80;99.90
12025;DHT22;6073;53.230;10.444;2023-07-02T07:06:03;20.80;99.90
12025;DHT22;6073;53.230;10.444;2023-07-02T07:08:28;20.90;99.90
12025;DHT22;6073;53.230;10.444;2023-07-02T07:10:54;21.00;99.90
12025;DHT22;6073;53.230;10.444;2023-07-02T07:13:20;20.70;99.90
12025;DHT22;6073;53.230;10.444;2023-07-02T07:15:45;20.50;99.90
12025;DHT22;6073;53.230;10.444;2023-07-02T07:18:11;20.90;99.90
12025;DHT22;6073;53.230;10.444;2023-07-02T07:20:38;21.10;99.90
12025;DHT22;6073;53.230;10.444;2023-07-02T07:23:05;21.00;99.90
12025;DHT22;6073;53.230;10.444;2023-07-02T07:25:31;21.20;99.90
12025;DHT22;6073;53.230;10.444;2023-07-02T07:27:59;21.30;99.90
12025;DHT22;6073;53.230;10.444;2023-07-02T07:30:24;21.50;99.90
12025;DHT22;6073;53.230;10.444;2023-07-02T07:32:53;21.40;99.90
12025;DHT22;6073;53.230;10.444;2023-07-02T07:35:22;21.00;99.90
12025;DHT22;6073;53.230;10.444;2023-07-02T07:37:48;20.70;99.90
12025;DHT22;6073;53.230;10.444;2023-07-02T07:40:14;21.00;99.90
12025;DHT22;6073;53.230;10.444;2023-07-02T07:42:41;21.10;99.90
12025;DHT22;6073;53.230;10.444;2023-07-02T07:45:07;21.20;99.90
12025;DHT22;6073;53.230;10.444;2023-07-02T07:47:33;21.30;99.90
12025;DHT22;6073;53.230;10.444;2023-07-02T07:49:58;21.10;99.90
12025;DHT22;6073;53.230;10.444;2023-07-02T07:52:24;21.30;99.90
12025;DHT22;6073;53.230;10.444;2023-07-02T07:54:49;21.80;99.90
12025;DHT22;6073;53.230;10.444;2023-07-02T07:57:15;21.30;99.90
12025;DHT22;6073;53.230;10.444;2023-07-02T07:59:40;21.30;99.90
12025;DHT22;6073;53.230;10.444;2023-07-02T08:02:06;20.80;99.90
12025;DHT22;6073;53.230;10.444;2023-07-02T08:04:32;21.20;99.90
12025;DHT22;6073;53.230;10.444;2023-07-02T08:06:57;21.20;99.90
12025;DHT22;6073;53.230;10.444;2023-07-02T08:09:24;20.90;99.90
12025;DHT22;6073;53.230;10.444;2023-07-02T08:11:50;20.20;99.90
12025;DHT22;6073;53.230;10.444;2023-07-02T08:14:16;19.40;99.90
12025;DHT22;6073;53.230;10.444;2023-07-02T08:16:44;19.00;99.90
12025;DHT22;6073;53.230;10.444;2023-07-02T08:19:10;18.70;99.90
12025;DHT22;6073;53.230;10.444;2023-07-02T08:21:35;18.60;99.90
12025;DHT22;6073;53.230;10.444;2023-07-02T08:24:01;18.60;99.90
12025;DHT22;6073;53.230;10.444;2023-07-02T08:26:26;18.50;99.90
12025;DHT22;6073;53.230;10.444;2023-07-02T08:28:52;18.40;99.90
12025;DHT22;6073;53.230;10.444;2023-07-02T08:31:17;18.30;99.90
12025;DHT22;6073;53.230;10.444;2023-07-02T08:33:43;18.90;99.90
12025;DHT22;6073;53.230;10.444;2023-07-02T08:36:08;19.90;99.90
12025;DHT22;6073;53.230;10.444;2023-07-02T08:38:34;20.90;99.90
12025;DHT22;6073;53.230;10.444;2023-07-02T08:41:00;21.40;99.90
12025;DHT22;6073;53.230;10.444;2023-07-02T08:43:26;21.70;99.90
12025;DHT22;6073;53.230;10.444;2023-07-02T08:45:55;21.50;99.90
12025;DHT22;6073;53.230;10.444;2023-07-02T08:48:21;21.00;99.90
12025;DHT22;6073;53.230;10.444;2023-07-02T08:50:49;21.00;99.90
12025;DHT22;6073;53.230;10.444;2023-07-02T08:53:15;21.30;99.90
12025;DHT22;6073;53.230;10.444;2023-07-02T08:55:41;21.50;99.90
12025;DHT22;6073;53.230;10.444;2023-07-02T08:58:06;21.60;99.90
12025;DHT22;6073;53.230;10.444;2023-07-02T09:00:32;21.90;99.90
12025;DHT22;6073;53.230;10.444;2023-07-02T09:03:14;21.90;99.90
12025;DHT22;6073;53.230;10.444;2023-07-02T09:05:52;21.40;99.90
12025;DHT22;6073;53.230;10.444;2023-07-02T09:08:25;21.60;99.90
12025;DHT22;6073;53.230;10.444;2023-07-02T09:10:51;21.20;99.90
12025;DHT22;6073;53.230;10.444;2023-07-02T09:13:16;20.50;99.90
12025;DHT22;6073;53.230;10.444;2023-07-02T09:15:42;20.40;99.90
12025;DHT22;6073;53.230;10.444;2023-07-02T09:18:18;20.30;99.90
12025;DHT22;6073;53.230;10.444;2023-07-02T09:20:44;20.50;99.90
12025;DHT22;6073;53.230;10.444;2023-07-02T09:23:10;20.70;99.90
12025;DHT22;6073;53.230;10.444;2023-07-02T09:25:40;20.90;99.90
12025;DHT22;6073;53.230;10.444;2023-07-02T09:28:26;21.10;99.90
12025;DHT22;6073;53.230;10.444;2023-07-02T09:30:58;21.00;99.90
12025;DHT22;6073;53.230;10.444;2023-07-02T09:33:25;21.20;99.90
12025;DHT22;6073;53.230;10.444;2023-07-02T09:35:50;21.20;99.90
12025;DHT22;6073;53.230;10.444;2023-07-02T09:38:18;21.10;99.90
12025;DHT22;6073;53.230;10.444;2023-07-02T09:40:50;21.30;99.90
12025;DHT22;6073;53.230;10.444;2023-07-02T09:43:17;21.40;99.90
12025;DHT22;6073;53.230;10.444;2023-07-02T09:45:48;21.00;99.90
12025;DHT22;6073;53.230;10.444;2023-07-02T09:48:16;20.90;99.90
12025;DHT22;6073;53.230;10.444;2023-07-02T09:50:43;20.90;99.90
12025;DHT22;6073;53.230;10.444;2023-07-02T09:53:10;20.70;99.90
12025;DHT22;6073;53.230;10.444;2023-07-02T09:55:39;20.50;99.90
12025;DHT22;6073;53.230;10.444;2023-07-02T09:58:05;20.70;99.90
12025;DHT22;6073;53.230;10.444;2023-07-02T10:00:31;20.50;99.90
12025;DHT22;6073;53.230;10.444;2023-07-02T10:02:57;20.20;99.90
12025;DHT22;6073;53.230;10.444;2023-07-02T10:05:33;20.40;99.90
12025;DHT22;6073;53.230;10.444;2023-07-02T10:08:11;20.60;99.90
12025;DHT22;6073;53.230;10.444;2023-07-02T10:10:37;20.50;99.90
12025;DHT22;6073;53.230;10.444;2023-07-02T10:13:03;20.50;99.90
12025;DHT22;6073;53.230;10.444;2023-07-02T10:15:29;20.20;99.90
12025;DHT22;6073;53.230;10.444;2023-07-02T10:17:57;20.20;99.90
12025;DHT22;6073;53.230;10.444;2023-07-02T10:20:34;20.60;99.90
12025;DHT22;6073;53.230;10.444;2023-07-02T10:22:59;20.90;99.90
12025;DHT22;6073;53.230;10.444;2023-07-02T10:25:28;21.00;99.90
12025;DHT22;6073;53.230;10.444;2023-07-02T10:27:54;21.10;99.90
12025;DHT22;6073;53.230;10.444;2023-07-02T10:30:37;21.00;99.90
12025;DHT22;6073;53.230;10.444;2023-07-02T10:33:14;21.10;99.90
12025;DHT22;6073;53.230;10.444;2023-07-02T10:35:41;21.50;99.90
12025;DHT22;6073;53.230;10.444;2023-07-02T10:38:13;22.00;99.90
12025;DHT22;6073;53.230;10.444;2023-07-02T10:40:41;22.50;99.90
12025;DHT22;6073;53.230;10.444;2023-07-02T10:43:06;22.50;99.90
12025;DHT22;6073;53.230;10.444;2023-07-02T10:45:35;22.40;99.90
12025;DHT22;6073;53.230;10.444;2023-07-02T10:48:02;22.10;99.90
12025;DHT22;6073;53.230;10.444;2023-07-02T10:50:30;21.90;99.90
12025;DHT22;6073;53.230;10.444;2023-07-02T10:52:57;21.70;99.90
12025;DHT22;6073;53.230;10.444;2023-07-02T10:55:24;21.80;99.90
12025;DHT22;6073;53.230;10.444;2023-07-02T10:57:50;21.70;99.90
12025;DHT22;6073;53.230;10.444;2023-07-02T11:00:17;21.30;99.90
12025;DHT22;6073;53.230;10.444;2023-07-02T11:02:43;20.90;99.90
12025;DHT22;6073;53.230;10.444;2023-07-02T11:05:09;20.70;99.90
12025;DHT22;6073;53.230;10.444;2023-07-02T11:07:41;20.20;99.90
12025;DHT22;6073;53.230;10.444;2023-07-02T11:10:08;20.10;99.90
12025;DHT22;6073;53.230;10.444;2023-07-02T11:12:34;20.00;99.90
12025;DHT22;6073;53.230;10.444;2023-07-02T11:15:13;19.90;99.90
12025;DHT22;6073;53.230;10.444;2023-07-02T11:17:39;19.90;99.90
12025;DHT22;6073;53.230;10.444;2023-07-02T11:20:09;20.30;99.90
12025;DHT22;6073;53.230;10.444;2023-07-02T11:22:36;21.10;99.90
12025;DHT22;6073;53.230;10.444;2023-07-02T11:25:15;21.50;99.90
12025;DHT22;6073;53.230;10.444;2023-07-02T11:27:41;21.70;99.90
12025;DHT22;6073;53.230;10.444;2023-07-02T11:30:07;21.40;99.90
12025;DHT22;6073;53.230;10.444;2023-07-02T11:32:53;21.00;99.90
12025;DHT22;6073;53.230;10.444;2023-07-02T11:35:20;21.60;99.90
12025;DHT22;6073;53.230;10.444;2023-07-02T11:37:46;21.30;99.90
12025;DHT22;6073;53.230;10.444;2023-07-02T11:40:12;21.20;99.90
12025;DHT22;6073;53.230;10.444;2023-07-02T11:42:38;21.70;99.90
12025;DHT22;6073;53.230;10.444;2023-07-02T11:45:04;22.10;99.90
12025;DHT22;6073;53.230;10.444;2023-07-02T11:47:30;22.20;99.90
12025;DHT22;6073;53.230;10.444;2023-07-02T11:49:55;22.10;99.90
12025;DHT22;6073;53.230;10.444;2023-07-02T11:52:21;22.30;99.90
12025;DHT22;6073;53.230;10.444;2023-07-02T11:54:48;22.50;99.90
12025;DHT22;6073;53.230;10.444;2023-07-02T11:57:13;22.80;99.90
12025;DHT22;6073;53.230;10.444;2023-07-02T11:59:39;22.80;99.90
12025;DHT22;6073;53.230;10.444;2023-07-02T12:02:05;22.80;99.90
12025;DHT22;6073;53.230;10.444;2023-07-02T12:04:30;23.10;99.90
12025;DHT22;6073;53.230;10.444;2023-07-02T12:06:56;23.10;99.90
12025;DHT22;6073;53.230;10.444;2023-07-02T12:09:21;23.00;99.90
12025;DHT22;6073;53.230;10.444;2023-07-02T12:11:47;22.40;99.90
12025;DHT22;6073;53.230;10.444;2023-07-02T12:14:13;21.90;99.90
12025;DHT22;6073;53.230;10.444;2023-07-02T12:16:38;21.50;99.90
12025;DHT22;6073;53.230;10.444;2023-07-02T12:19:04;21.20;99.90
12025;DHT22;6073;53.230;10.444;2023-07-02T12:21:30;21.10;99.90
12025;DHT22;6073;53.230;10.444;2023-07-02T12:23:55;20.90;99.90
12025;DHT22;6073;53.230;10.444;2023-07-02T12:26:21;21.00;99.90
12025;DHT22;6073;53.230;10.444;2023-07-02T12:28:46;21.20;99.90
12025;DHT22;6073;53.230;10.444;2023-07-02T12:31:12;21.50;99.90
12025;DHT22;6073;53.230;10.444;2023-07-02T12:33:38;21.80;99.90
12025;DHT22;6073;53.230;10.444;2023-07-02T12:36:04;21.60;99.90
12025;DHT22;6073;53.230;10.444;2023-07-02T12:38:30;21.20;99.90
12025;DHT22;6073;53.230;10.444;2023-07-02T12:40:55;21.20;99.90
12025;DHT22;6073;53.230;10.444;2023-07-02T12:43:21;21.50;99.90
12025;DHT22;6073;53.230;10.444;2023-07-02T12:45:47;21.40;99.90
12025;DHT22;6073;53.230;10.444;2023-07-02T12:48:12;21.50;99.90
12025;DHT22;6073;53.230;10.444;2023-07-02T12:50:38;22.00;99.90
12025;DHT22;6073;53.230;10.444;2023-07-02T12:53:04;22.10;99.90
12025;DHT22;6073;53.230;10.444;2023-07-02T12:55:30;22.30;99.90
12025;DHT22;6073;53.230;10.444;2023-07-02T12:57:56;22.60;99.90
12025;DHT22;6073;53.230;10.444;2023-07-02T13:00:21;22.60;99.90
12025;DHT22;6073;53.230;10.444;2023-07-02T13:02:47;22.70;99.90
12025;DHT22;6073;53.230;10.444;2023-07-02T13:05:13;22.60;99.90
12025;DHT22;6073;53.230;10.444;2023-07-02T13:07:39;22.10;99.90
12025;DHT22;6073;53.230;10.444;2023-07-02T13:10:05;22.10;99.90
12025;DHT22;6073;53.230;10.444;2023-07-02T13:12:31;22.40;99.90
12025;DHT22;6073;53.230;10.444;2023-07-02T13:14:56;22.20;99.90
12025;DHT22;6073;53.230;10.444;2023-07-02T13:17:22;22.10;99.90
12025;DHT22;6073;53.230;10.444;2023-07-02T13:19:47;21.70;99.90
12025;DHT22;6073;53.230;10.444;2023-07-02T13:22:14;21.40;99.90
12025;DHT22;6073;53.230;10.444;2023-07-02T13:24:39;21.20;99.90
12025;DHT22;6073;53.230;10.444;2023-07-02T13:27:11;20.90;99.90
12025;DHT22;6073;53.230;10.444;2023-07-02T13:29:38;20.70;99.90
12025;DHT22;6073;53.230;10.444;2023-07-02T13:32:03;20.60;99.90
12025;DHT22;6073;53.230;10.444;2023-07-02T13:34:29;20.40;99.90
12025;DHT22;6073;53.230;10.444;2023-07-02T13:36:55;20.40;99.90
12025;DHT22;6073;53.230;10.444;2023-07-02T13:39:20;20.90;99.90
12025;DHT22;6073;53.230;10.444;2023-07-02T13:41:46;21.30;99.90
12025;DHT22;6073;53.230;10.444;2023-07-02T13:44:11;21.70;99.90
12025;DHT22;6073;53.230;10.444;2023-07-02T13:46:37;21.80;99.90
12025;DHT22;6073;53.230;10.444;2023-07-02T13:49:02;21.70;99.90
12025;DHT22;6073;53.230;10.444;2023-07-02T13:51:28;21.40;99.90
12025;DHT22;6073;53.230;10.444;2023-07-02T13:53:53;21.70;99.90
12025;DHT22;6073;53.230;10.444;2023-07-02T13:56:19;22.00;99.90
12025;DHT22;6073;53.230;10.444;2023-07-02T13:59:03;21.60;99.90
12025;DHT22;6073;53.230;10.444;2023-07-02T14:01:29;21.20;99.90
12025;DHT22;6073;53.230;10.444;2023-07-02T14:03:55;21.20;99.90
12025;DHT22;6073;53.230;10.444;2023-07-02T14:06:21;21.40;99.90
12025;DHT22;6073;53.230;10.444;2023-07-02T14:08:47;21.60;99.90
12025;DHT22;6073;53.230;10.444;2023-07-02T14:11:12;21.90;99.90
12025;DHT22;6073;53.230;10.444;2023-07-02T14:13:38;21.90;99.90
12025;DHT22;6073;53.230;10.444;2023-07-02T14:16:03;22.10;99.90
12025;DHT22;6073;53.230;10.444;2023-07-02T14:18:29;22.30;99.90
12025;DHT22;6073;53.230;10.444;2023-07-02T14:20:54;22.30;99.90
12025;DHT22;6073;53.230;10.444;2023-07-02T14:23:20;22.00;99.90
12025;DHT22;6073;53.230;10.444;2023-07-02T14:25:46;22.10;99.90
12025;DHT22;6073;53.230;10.444;2023-07-02T14:28:11;21.60;99.90
12025;DHT22;6073;53.230;10.444;2023-07-02T14:30:37;21.30;99.90
12025;DHT22;6073;53.230;10.444;2023-07-02T14:33:03;21.10;99.90
12025;DHT22;6073;53.230;10.444;2023-07-02T14:35:29;21.10;99.90
12025;DHT22;6073;53.230;10.444;2023-07-02T14:37:56;21.10;99.90
12025;DHT22;6073;53.230;10.444;2023-07-02T14:40:22;21.40;99.90
12025;DHT22;6073;53.230;10.444;2023-07-02T14:42:48;21.50;99.90
12025;DHT22;6073;53.230;10.444;2023-07-02T14:45:13;21.30;99.90
12025;DHT22;6073;53.230;10.444;2023-07-02T14:47:39;21.00;99.90
12025;DHT22;6073;53.230;10.444;2023-07-02T14:50:05;20.80;99.90
12025;DHT22;6073;53.230;10.444;2023-07-02T14:52:31;20.70;99.90
12025;DHT22;6073;53.230;10.444;2023-07-02T14:54:56;20.80;99.90
12025;DHT22;6073;53.230;10.444;2023-07-02T14:57:25;20.80;99.90
12025;DHT22;6073;53.230;10.444;2023-07-02T14:59:50;20.80;99.90
12025;DHT22;6073;53.230;10.444;2023-07-02T15:02:17;20.80;99.90
12025;DHT22;6073;53.230;10.444;2023-07-02T15:04:44;20.70;99.90
12025;DHT22;6073;53.230;10.444;2023-07-02T15:07:10;20.90;99.90
12025;DHT22;6073;53.230;10.444;2023-07-02T15:09:36;21.00;99.90
12025;DHT22;6073;53.230;10.444;2023-07-02T15:12:01;21.20;99.90
12025;DHT22;6073;53.230;10.444;2023-07-02T15:14:27;21.40;99.90
12025;DHT22;6073;53.230;10.444;2023-07-02T15:16:52;21.30;99.90
12025;DHT22;6073;53.230;10.444;2023-07-02T15:19:18;21.00;99.90
12025;DHT22;6073;53.230;10.444;2023-07-02T15:21:44;20.90;99.90
12025;DHT22;6073;53.230;10.444;2023-07-02T15:24:09;20.50;99.90
12025;DHT22;6073;53.230;10.444;2023-07-02T15:26:37;20.50;99.90